Terminal Aerodrome Forecast
Issued by NWS Houston/Galveston, TX

Current Version | Previous Version | Text Only | Print | Product List | Glossary On
Versions: 1 2 3 4 5 6 7 8 9 10 11 12 13 14 15 16 17 18 19 20 21 22 23 24 25 26 27 28 29 30 31 32 33
000
FTUS44 KHGX 302340
TAFCLL
TAF
KCLL 302340Z 3100/3124 13004KT P6SM BKN250
     FM310300 17004KT P6SM FEW015 BKN250
     FM311000 18003KT P6SM MIFG SCT015 OVC025
     FM311500 16007KT P6SM SCT030 BKN080
      TEMPO 3116/3120 SHRA BKN028 OVC060
     FM312100 14011KT P6SM VCTS SCT040CB BKN150 PROB30 3121/3124
      TSRA=

USA.gov is the U.S. government's official web portal to all federal, state and local government web resources and services.